createdAt,value
2017-10-18T00:00:31.825Z,0
2017-10-18T00:01:32.044Z,0
2017-10-18T00:02:31.820Z,0
2017-10-18T00:03:31.758Z,0
2017-10-18T00:04:31.788Z,0
2017-10-18T00:05:31.733Z,0
2017-10-18T00:06:31.756Z,0
2017-10-18T00:07:31.401Z,0
2017-10-18T00:08:31.770Z,0
2017-10-18T00:09:31.743Z,0
2017-10-18T00:10:31.731Z,0
2017-10-18T00:11:31.694Z,0
2017-10-18T00:12:31.680Z,0
2017-10-18T00:13:31.709Z,0
2017-10-18T00:14:31.692Z,0
2017-10-18T00:15:31.712Z,0
2017-10-18T00:16:31.320Z,0
2017-10-18T00:17:31.674Z,0
2017-10-18T00:18:31.333Z,0
2017-10-18T00:19:31.632Z,0
2017-10-18T00:20:31.674Z,0
2017-10-18T00:21:31.267Z,0
2017-10-18T00:22:31.727Z,0
2017-10-18T00:23:31.607Z,0
2017-10-18T00:24:31.636Z,0
2017-10-18T00:25:31.610Z,0
2017-10-18T00:26:31.596Z,0
2017-10-18T00:27:31.248Z,0
2017-10-18T00:28:31.218Z,0
2017-10-18T00:29:31.626Z,0
2017-10-18T00:30:31.558Z,0
2017-10-18T00:31:31.537Z,0
2017-10-18T00:32:31.867Z,0
2017-10-18T00:33:31.523Z,0
2017-10-18T00:34:31.218Z,0
2017-10-18T00:35:31.493Z,0
2017-10-18T00:36:31.531Z,0
2017-10-18T00:37:31.472Z,0
2017-10-18T00:38:31.495Z,0
2017-10-18T00:39:31.479Z,0
2017-10-18T00:40:31.504Z,0
2017-10-18T00:41:31.143Z,0
2017-10-18T00:42:31.457Z,0
2017-10-18T00:43:30.770Z,0
2017-10-18T00:44:31.468Z,0
2017-10-18T00:45:31.418Z,0
2017-10-18T00:46:31.088Z,0
2017-10-18T00:47:31.386Z,0
2017-10-18T00:48:31.099Z,0
2017-10-18T00:49:31.392Z,0
2017-10-18T00:50:31.423Z,0
2017-10-18T00:51:31.039Z,0
2017-10-18T00:52:31.414Z,0
2017-10-18T00:53:31.220Z,0
2017-10-18T00:54:31.363Z,0
2017-10-18T00:55:31.017Z,0
2017-10-18T00:56:31.385Z,0
2017-10-18T00:57:31.343Z,0
2017-10-18T00:58:31.350Z,0
2017-10-18T00:59:31.310Z,0
2017-10-18T01:00:31.281Z,0
2017-10-18T01:01:31.317Z,0
2017-10-18T01:02:31.304Z,0
2017-10-18T01:03:31.312Z,0
2017-10-18T01:04:31.507Z,0
2017-10-18T01:05:30.945Z,0
2017-10-18T01:06:31.239Z,0
2017-10-18T01:07:31.268Z,0
2017-10-18T01:08:31.214Z,0
2017-10-18T01:09:31.256Z,0
2017-10-18T01:10:31.244Z,0
2017-10-18T01:11:30.875Z,0
2017-10-18T01:12:31.247Z,0
2017-10-18T01:13:30.892Z,0
2017-10-18T01:14:30.890Z,0
2017-10-18T01:15:31.175Z,0
2017-10-18T01:16:31.184Z,0
2017-10-18T01:17:31.181Z,0
2017-10-18T01:18:31.181Z,0
2017-10-18T01:19:30.524Z,0
2017-10-18T01:20:30.807Z,0
2017-10-18T01:21:31.143Z,0
2017-10-18T01:22:31.098Z,0
2017-10-18T01:23:31.136Z,0
2017-10-18T01:24:31.086Z,0
2017-10-18T01:25:30.794Z,0
2017-10-18T01:26:31.093Z,0
2017-10-18T01:27:31.104Z,0
2017-10-18T01:28:30.715Z,0
2017-10-18T01:29:31.074Z,0
2017-10-18T01:30:30.727Z,0
2017-10-18T01:31:31.083Z,0
2017-10-18T01:32:31.070Z,0
2017-10-18T01:33:30.368Z,0
2017-10-18T01:34:30.696Z,0
2017-10-18T01:35:30.274Z,0
2017-10-18T01:36:30.982Z,0
2017-10-18T01:37:31.011Z,0
2017-10-18T01:38:30.639Z,0
2017-10-18T01:39:30.667Z,0
2017-10-18T01:40:30.626Z,0
2017-10-18T01:41:30.660Z,0
2017-10-18T01:42:30.969Z,0
2017-10-18T01:43:30.972Z,0
2017-10-18T01:44:30.579Z,0
2017-10-18T01:45:30.934Z,0
2017-10-18T01:46:30.924Z,0
2017-10-18T01:47:30.279Z,0
2017-10-18T01:48:30.937Z,0
2017-10-18T01:49:30.551Z,0
2017-10-18T01:50:31.187Z,0
2017-10-18T01:51:30.853Z,0
2017-10-18T01:52:30.900Z,0
2017-10-18T01:53:30.851Z,0
2017-10-18T01:54:30.891Z,0
2017-10-18T01:55:31.047Z,0
2017-10-18T01:56:30.866Z,0
2017-10-18T01:57:30.799Z,0
2017-10-18T01:58:30.827Z,0
2017-10-18T01:59:30.461Z,0
2017-10-18T02:00:30.506Z,0
2017-10-18T02:01:30.785Z,0
2017-10-18T02:02:30.458Z,0
2017-10-18T02:03:30.801Z,0
2017-10-18T02:04:30.463Z,0
2017-10-18T02:05:30.426Z,0
2017-10-18T02:06:31.003Z,0
2017-10-18T02:07:30.381Z,0
2017-10-18T02:08:30.768Z,0
2017-10-18T02:09:30.384Z,0
2017-10-18T02:10:30.745Z,0
2017-10-18T02:11:30.694Z,0
2017-10-18T02:12:30.725Z,0
2017-10-18T02:13:30.681Z,0
2017-10-18T02:14:30.352Z,0
2017-10-18T02:15:30.690Z,0
2017-10-18T02:16:29.972Z,0
2017-10-18T02:17:30.649Z,0
2017-10-18T02:18:29.980Z,0
2017-10-18T02:19:30.661Z,0
2017-10-18T02:20:30.657Z,0
2017-10-18T02:21:30.617Z,0
2017-10-18T02:22:30.636Z,0
2017-10-18T02:23:30.579Z,0
2017-10-18T02:24:30.670Z,0
2017-10-18T02:25:30.265Z,0
2017-10-18T02:26:30.354Z,0
2017-10-18T02:27:30.595Z,0
2017-10-18T02:28:30.542Z,0
2017-10-18T02:29:30.590Z,0
2017-10-18T02:30:30.216Z,0
2017-10-18T02:31:30.221Z,0
2017-10-18T02:32:30.504Z,0
2017-10-18T02:33:30.205Z,0
2017-10-18T02:34:30.513Z,0
2017-10-18T02:35:30.527Z,0
2017-10-18T02:36:30.191Z,0
2017-10-18T02:37:30.724Z,0
2017-10-18T02:38:30.141Z,0
2017-10-18T02:39:30.107Z,0
2017-10-18T02:40:30.494Z,0
2017-10-18T02:41:30.440Z,0
2017-10-18T02:42:30.490Z,0
2017-10-18T02:43:30.432Z,0
2017-10-18T02:44:30.454Z,0
2017-10-18T02:45:30.069Z,0
2017-10-18T02:46:30.413Z,0
2017-10-18T02:47:29.727Z,0
2017-10-18T02:48:30.084Z,0
2017-10-18T02:49:30.426Z,0
2017-10-18T02:50:30.383Z,0
2017-10-18T02:51:30.364Z,0
2017-10-18T02:52:30.381Z,0
2017-10-18T02:53:30.354Z,0
2017-10-18T02:54:30.342Z,0
2017-10-18T02:55:30.342Z,0
2017-10-18T02:56:30.007Z,0
2017-10-18T02:57:29.971Z,0
2017-10-18T02:58:30.005Z,0
2017-10-18T02:59:30.278Z,0
2017-10-18T03:00:29.979Z,0
2017-10-18T03:01:29.584Z,0
2017-10-18T03:02:30.276Z,0
2017-10-18T03:03:30.249Z,0
2017-10-18T03:04:30.290Z,0
2017-10-18T03:05:30.261Z,0
2017-10-18T03:06:30.277Z,0
2017-10-18T03:07:29.877Z,0
2017-10-18T03:08:30.126Z,0
2017-10-18T03:09:30.223Z,0
2017-10-18T03:10:29.864Z,0
2017-10-18T03:11:30.229Z,0
2017-10-18T03:12:29.494Z,0
2017-10-18T03:13:29.858Z,0
2017-10-18T03:14:30.149Z,0
2017-10-18T03:15:30.164Z,0
2017-10-18T03:16:29.787Z,0
2017-10-18T03:17:30.162Z,0
2017-10-18T03:18:30.134Z,0
2017-10-18T03:19:30.107Z,0
2017-10-18T03:20:30.143Z,0
2017-10-18T03:21:30.130Z,0
2017-10-18T03:22:29.764Z,0
2017-10-18T03:23:30.074Z,0
2017-10-18T03:24:30.065Z,0
2017-10-18T03:25:29.746Z,0
2017-10-18T03:26:30.065Z,0
2017-10-18T03:27:30.101Z,0
2017-10-18T03:28:30.022Z,0
2017-10-18T03:29:30.051Z,0
2017-10-18T03:30:29.671Z,0
2017-10-18T03:31:30.040Z,0
2017-10-18T03:32:29.651Z,0
2017-10-18T03:33:29.698Z,0
2017-10-18T03:34:30.000Z,0
2017-10-18T03:35:29.994Z,0
2017-10-18T03:36:29.944Z,0
2017-10-18T03:37:29.291Z,0
2017-10-18T03:38:29.628Z,0
2017-10-18T03:39:29.541Z,0
2017-10-18T03:40:29.961Z,0
2017-10-18T03:41:29.924Z,0
2017-10-18T03:42:29.917Z,0
2017-10-18T03:43:29.923Z,0
2017-10-18T03:44:29.884Z,0
2017-10-18T03:45:29.911Z,0
2017-10-18T03:46:29.526Z,0
2017-10-18T03:47:29.561Z,0
2017-10-18T03:48:29.852Z,0
2017-10-18T03:49:29.560Z,0
2017-10-18T03:50:29.530Z,0
2017-10-18T03:51:29.186Z,0
2017-10-18T03:52:29.803Z,0
2017-10-18T03:53:29.478Z,0
2017-10-18T03:54:29.470Z,0
2017-10-18T03:55:29.825Z,0
2017-10-18T03:56:29.441Z,0
2017-10-18T03:57:29.809Z,0
2017-10-18T03:58:29.784Z,0
2017-10-18T03:59:29.801Z,0
2017-10-18T04:00:29.738Z,0
2017-10-18T04:01:29.761Z,0
2017-10-18T04:02:29.390Z,0
2017-10-18T04:03:29.754Z,0
2017-10-18T04:04:29.412Z,0
2017-10-18T04:05:29.417Z,0
2017-10-18T04:06:29.704Z,0
2017-10-18T04:07:29.755Z,0
2017-10-18T04:08:29.672Z,0
2017-10-18T04:09:29.693Z,0
2017-10-18T04:10:29.928Z,0
2017-10-18T04:11:29.324Z,0
2017-10-18T04:12:29.631Z,0
2017-10-18T04:13:29.672Z,0
2017-10-18T04:14:29.648Z,0
2017-10-18T04:15:29.331Z,0
2017-10-18T04:16:29.264Z,0
2017-10-18T04:17:28.955Z,0
2017-10-18T04:18:29.591Z,0
2017-10-18T04:19:29.620Z,0
2017-10-18T04:20:29.235Z,0
2017-10-18T04:21:29.272Z,0
2017-10-18T04:22:29.230Z,0
2017-10-18T04:23:29.583Z,0
2017-10-18T04:24:29.520Z,0
2017-10-18T04:25:29.534Z,0
2017-10-18T04:26:29.206Z,0
2017-10-18T04:27:29.219Z,0
2017-10-18T04:28:29.210Z,0
2017-10-18T04:29:29.498Z,0
2017-10-18T04:30:29.501Z,0
2017-10-18T04:31:29.464Z,0
2017-10-18T04:32:29.511Z,0
2017-10-18T04:33:29.477Z,0
2017-10-18T04:34:29.471Z,0
2017-10-18T04:35:29.479Z,0
2017-10-18T04:36:29.090Z,0
2017-10-18T04:37:28.801Z,0
2017-10-18T04:38:29.439Z,0
2017-10-18T04:39:29.136Z,0
2017-10-18T04:40:29.379Z,0
2017-10-18T04:41:29.400Z,0
2017-10-18T04:42:29.316Z,0
2017-10-18T04:43:29.079Z,0
2017-10-18T04:44:29.448Z,0
2017-10-18T04:45:29.038Z,0
2017-10-18T04:46:28.689Z,0
2017-10-18T04:47:29.329Z,0
2017-10-18T04:48:28.696Z,0
2017-10-18T04:49:29.325Z,0
2017-10-18T04:50:28.685Z,0
2017-10-18T04:51:28.973Z,0
2017-10-18T04:52:29.334Z,0
2017-10-18T04:53:28.941Z,0
2017-10-18T04:54:29.297Z,0
2017-10-18T04:55:29.266Z,0
2017-10-18T04:56:28.966Z,0
2017-10-18T04:57:29.273Z,0
2017-10-18T04:58:29.276Z,0
2017-10-18T04:59:28.560Z,0
2017-10-18T05:00:28.928Z,0
2017-10-18T05:01:28.882Z,0
2017-10-18T05:02:29.235Z,0
2017-10-18T05:03:29.183Z,0
2017-10-18T05:04:29.228Z,0
2017-10-18T05:05:29.195Z,0
2017-10-18T05:06:28.878Z,0
2017-10-18T05:07:28.499Z,0
2017-10-18T05:08:29.194Z,0
2017-10-18T05:09:29.136Z,0
2017-10-18T05:10:29.171Z,0
2017-10-18T05:11:29.142Z,0
2017-10-18T05:12:28.831Z,0
2017-10-18T05:13:29.443Z,0
2017-10-18T05:14:29.129Z,0
2017-10-18T05:15:29.100Z,0
2017-10-18T05:16:28.748Z,0
2017-10-18T05:17:28.770Z,0
2017-10-18T05:18:29.091Z,0
2017-10-18T05:19:29.109Z,0
2017-10-18T05:20:28.746Z,0
2017-10-18T05:21:29.068Z,0
2017-10-18T05:22:28.361Z,0
2017-10-18T05:23:28.734Z,0
2017-10-18T05:24:29.009Z,0
2017-10-18T05:25:29.040Z,0
2017-10-18T05:26:29.020Z,0
2017-10-18T05:27:28.668Z,0
2017-10-18T05:28:28.711Z,0
2017-10-18T05:29:28.674Z,0
2017-10-18T05:30:28.666Z,0
2017-10-18T05:31:28.628Z,5
2017-10-18T05:32:28.943Z,5
2017-10-18T05:33:28.982Z,5
2017-10-18T05:34:28.624Z,5
2017-10-18T05:35:28.982Z,5
2017-10-18T05:36:28.938Z,5
2017-10-18T05:37:28.601Z,5
2017-10-18T05:38:28.584Z,5
2017-10-18T05:39:28.913Z,10
2017-10-18T05:40:28.601Z,10
2017-10-18T05:41:28.531Z,10
2017-10-18T05:42:28.564Z,10
2017-10-18T05:43:28.542Z,10
2017-10-18T05:44:29.160Z,10
2017-10-18T05:45:28.876Z,15
2017-10-18T05:46:28.867Z,15
2017-10-18T05:47:28.827Z,15
2017-10-18T05:48:28.493Z,15
2017-10-18T05:49:28.838Z,15
2017-10-18T05:50:28.486Z,15
2017-10-18T05:51:28.465Z,15
2017-10-18T05:52:28.493Z,20
2017-10-18T05:53:28.452Z,20
2017-10-18T05:54:28.485Z,20
2017-10-18T05:55:28.770Z,20
2017-10-18T05:56:28.126Z,20
2017-10-18T05:57:28.733Z,25
2017-10-18T05:58:28.420Z,25
2017-10-18T05:59:28.735Z,30
2017-10-18T06:00:28.766Z,30
2017-10-18T06:01:28.747Z,35
2017-10-18T06:02:28.393Z,35
2017-10-18T06:03:28.703Z,40
2017-10-18T06:04:28.348Z,40
2017-10-18T06:05:28.376Z,40
2017-10-18T06:06:28.022Z,40
2017-10-18T06:07:28.720Z,40
2017-10-18T06:08:28.325Z,40
2017-10-18T06:09:28.346Z,40
2017-10-18T06:10:28.634Z,40
2017-10-18T06:11:28.683Z,40
2017-10-18T06:12:28.620Z,45
2017-10-18T06:13:28.326Z,45
2017-10-18T06:14:28.623Z,45
2017-10-18T06:15:28.893Z,50
2017-10-18T06:16:28.592Z,55
2017-10-18T06:17:28.275Z,55
2017-10-18T06:18:28.594Z,60
2017-10-18T06:19:27.904Z,60
2017-10-18T06:20:28.245Z,65
2017-10-18T06:21:28.581Z,60
2017-10-18T06:22:28.564Z,60
2017-10-18T06:23:28.584Z,65
2017-10-18T06:24:28.525Z,60
2017-10-18T06:25:28.590Z,65
2017-10-18T06:26:28.502Z,65
2017-10-18T06:27:28.535Z,70
2017-10-18T06:28:28.500Z,70
2017-10-18T06:29:28.545Z,70
2017-10-18T06:30:28.161Z,70
2017-10-18T06:31:28.172Z,75
2017-10-18T06:32:28.457Z,75
2017-10-18T06:33:28.474Z,80
2017-10-18T06:34:28.475Z,80
2017-10-18T06:35:28.493Z,80
2017-10-18T06:36:28.139Z,75
2017-10-18T06:37:28.101Z,80
2017-10-18T06:38:28.438Z,85
2017-10-18T06:39:28.410Z,85
2017-10-18T06:40:28.452Z,85
2017-10-18T06:41:28.406Z,90
2017-10-18T06:42:28.413Z,90
2017-10-18T06:43:28.423Z,95
2017-10-18T06:44:28.375Z,100
2017-10-18T06:45:27.741Z,100
2017-10-18T06:46:28.634Z,105
2017-10-18T06:47:28.060Z,100
2017-10-18T06:48:28.007Z,100
2017-10-18T06:49:27.692Z,115
2017-10-18T06:50:28.377Z,120
2017-10-18T06:51:28.363Z,110
2017-10-18T06:52:28.363Z,115
2017-10-18T06:53:27.979Z,115
2017-10-18T06:54:28.315Z,120
2017-10-18T06:55:27.957Z,120
2017-10-18T06:56:28.547Z,120
2017-10-18T06:57:28.278Z,130
2017-10-18T06:58:27.928Z,130
2017-10-18T06:59:27.595Z,145
2017-10-18T07:00:27.917Z,150
2017-10-18T07:01:28.263Z,155
2017-10-18T07:02:28.235Z,155
2017-10-18T07:03:28.226Z,155
2017-10-18T07:04:28.253Z,155
2017-10-18T07:05:28.208Z,150
2017-10-18T07:06:28.211Z,145
2017-10-18T07:07:27.868Z,150
2017-10-18T07:08:28.193Z,155
2017-10-18T07:09:27.850Z,155
2017-10-18T07:10:28.177Z,160
2017-10-18T07:11:27.834Z,165
2017-10-18T07:12:27.497Z,160
2017-10-18T07:13:27.822Z,160
2017-10-18T07:14:27.482Z,150
2017-10-18T07:15:27.482Z,160
2017-10-18T07:16:27.800Z,165
2017-10-18T07:17:28.380Z,165
2017-10-18T07:18:28.121Z,165
2017-10-18T07:19:28.109Z,165
2017-10-18T07:20:28.107Z,160
2017-10-18T07:21:28.106Z,160
2017-10-18T07:22:28.091Z,155
2017-10-18T07:23:28.101Z,155
2017-10-18T07:24:28.078Z,145
2017-10-18T07:25:28.075Z,145
2017-10-18T07:26:27.408Z,155
2017-10-18T07:27:27.406Z,170
2017-10-18T07:28:28.061Z,185
2017-10-18T07:29:28.052Z,195
2017-10-18T07:30:27.729Z,205
2017-10-18T07:31:28.047Z,215
2017-10-18T07:32:27.708Z,215
2017-10-18T07:33:27.696Z,220
2017-10-18T07:34:27.690Z,225
2017-10-18T07:35:28.017Z,245
2017-10-18T07:36:27.678Z,240
2017-10-18T07:37:28.000Z,255
2017-10-18T07:38:27.662Z,260
2017-10-18T07:39:27.655Z,275
2017-10-18T07:40:27.649Z,280
2017-10-18T07:41:27.978Z,280
2017-10-18T07:42:27.842Z,285
2017-10-18T07:43:27.633Z,290
2017-10-18T07:44:27.959Z,290
2017-10-18T07:45:27.654Z,285
2017-10-18T07:46:27.942Z,285
2017-10-18T07:47:27.938Z,290
2017-10-18T07:48:27.939Z,290
2017-10-18T07:49:27.512Z,275
2017-10-18T07:50:27.927Z,275
2017-10-18T07:51:27.917Z,280
2017-10-18T07:52:27.583Z,300
2017-10-18T07:53:27.907Z,315
2017-10-18T07:54:27.569Z,285
2017-10-18T07:55:27.916Z,305
2017-10-18T07:56:27.899Z,315
2017-10-18T07:57:27.889Z,320
2017-10-18T07:58:27.547Z,325
2017-10-18T07:59:27.549Z,325
2017-10-18T08:00:27.206Z,320
2017-10-18T08:01:27.872Z,320
2017-10-18T08:02:27.858Z,320
2017-10-18T08:03:27.188Z,315
2017-10-18T08:04:27.848Z,315
2017-10-18T08:05:27.839Z,305
2017-10-18T08:06:26.860Z,310
2017-10-18T08:07:27.505Z,315
2017-10-18T08:08:27.838Z,315
2017-10-18T08:09:27.162Z,310
2017-10-18T08:10:27.825Z,320
2017-10-18T08:11:27.820Z,325
2017-10-18T08:12:27.146Z,315
2017-10-18T08:13:27.821Z,315
2017-10-18T08:14:27.473Z,325
2017-10-18T08:15:27.472Z,335
2017-10-18T08:16:27.131Z,330
2017-10-18T08:17:27.456Z,310
2017-10-18T08:18:27.455Z,320
2017-10-18T08:19:27.462Z,325
2017-10-18T08:20:27.704Z,330
2017-10-18T08:21:27.114Z,335
2017-10-18T08:22:27.446Z,335
2017-10-18T08:23:27.771Z,335
2017-10-18T08:24:27.761Z,335
2017-10-18T08:25:27.426Z,340
2017-10-18T08:26:27.753Z,350
2017-10-18T08:27:27.760Z,350
2017-10-18T08:28:27.411Z,365
2017-10-18T08:29:28.127Z,350
2017-10-18T08:30:27.411Z,330
2017-10-18T08:31:27.732Z,330
2017-10-18T08:32:27.724Z,345
2017-10-18T08:33:27.726Z,360
2017-10-18T08:34:27.716Z,365
2017-10-18T08:35:27.718Z,365
2017-10-18T08:36:26.381Z,370
2017-10-18T08:37:27.712Z,360
2017-10-18T08:38:27.703Z,350
2017-10-18T08:39:27.704Z,330
2017-10-18T08:40:27.037Z,330
2017-10-18T08:41:27.693Z,355
2017-10-18T08:42:27.750Z,365
2017-10-18T08:43:27.018Z,370
2017-10-18T08:44:27.688Z,370
2017-10-18T08:45:27.684Z,370
2017-10-18T08:46:27.367Z,380
2017-10-18T08:47:27.676Z,370
2017-10-18T08:48:27.702Z,370
2017-10-18T08:49:27.334Z,365
2017-10-18T08:50:27.326Z,345
2017-10-18T08:51:27.578Z,340
2017-10-18T08:52:27.668Z,340
2017-10-18T08:53:27.654Z,345
2017-10-18T08:54:26.322Z,335
2017-10-18T08:55:27.861Z,330
2017-10-18T08:56:27.656Z,325
2017-10-18T08:57:26.985Z,320
2017-10-18T08:58:27.640Z,315
2017-10-18T08:59:27.301Z,320
2017-10-18T09:00:27.629Z,320
2017-10-18T09:01:29.247Z,320
2017-10-18T09:02:27.623Z,325
2017-10-18T09:03:26.626Z,335
2017-10-18T09:04:27.612Z,335
2017-10-18T09:05:27.293Z,335
2017-10-18T09:06:26.950Z,340
2017-10-18T09:07:27.616Z,325
2017-10-18T09:08:27.277Z,325
2017-10-18T09:09:27.282Z,320
2017-10-18T09:10:27.272Z,320
2017-10-18T09:11:27.597Z,320
2017-10-18T09:12:27.588Z,310
2017-10-18T09:13:27.589Z,305
2017-10-18T09:14:27.253Z,310
2017-10-18T09:15:27.592Z,315
2017-10-18T09:16:27.590Z,320
2017-10-18T09:17:26.911Z,305
2017-10-18T09:18:27.604Z,310
2017-10-18T09:19:27.236Z,320
2017-10-18T09:20:26.902Z,340
2017-10-18T09:21:27.231Z,325
2017-10-18T09:22:27.812Z,305
2017-10-18T09:23:27.225Z,305
2017-10-18T09:24:27.221Z,305
2017-10-18T09:25:27.221Z,305
2017-10-18T09:26:27.559Z,295
2017-10-18T09:27:27.542Z,295
2017-10-18T09:28:27.539Z,300
2017-10-18T09:29:27.545Z,305
2017-10-18T09:30:27.533Z,295
2017-10-18T09:31:27.194Z,290
2017-10-18T09:32:27.195Z,290
2017-10-18T09:33:27.523Z,285
2017-10-18T09:34:27.516Z,285
2017-10-18T09:35:27.194Z,285
2017-10-18T09:36:27.177Z,285
2017-10-18T09:37:26.848Z,280
2017-10-18T09:38:27.510Z,275
2017-10-18T09:39:27.937Z,275
2017-10-18T09:40:26.839Z,270
2017-10-18T09:41:27.163Z,270
2017-10-18T09:42:27.533Z,265
2017-10-18T09:43:26.827Z,265
2017-10-18T09:44:27.146Z,265
2017-10-18T09:45:27.480Z,265
2017-10-18T09:46:27.472Z,265
2017-10-18T09:47:27.469Z,265
2017-10-18T09:48:27.139Z,265
2017-10-18T09:49:26.796Z,260
2017-10-18T09:50:27.130Z,260
2017-10-18T09:51:27.134Z,260
2017-10-18T09:52:27.122Z,260
2017-10-18T09:53:27.692Z,265
2017-10-18T09:54:27.439Z,260
2017-10-18T09:55:27.142Z,260
2017-10-18T09:56:27.432Z,260
2017-10-18T09:57:27.443Z,260
2017-10-18T09:58:27.103Z,260
2017-10-18T09:59:27.088Z,260
2017-10-18T10:00:27.440Z,255
2017-10-18T10:01:27.087Z,255
2017-10-18T10:02:27.411Z,260
2017-10-18T10:03:27.085Z,255
2017-10-18T10:04:27.067Z,255
2017-10-18T10:05:27.406Z,255
2017-10-18T10:06:27.071Z,255
2017-10-18T10:07:27.075Z,245
2017-10-18T10:08:27.058Z,245
2017-10-18T10:09:27.047Z,245
2017-10-18T10:10:27.049Z,245
2017-10-18T10:11:27.053Z,245
2017-10-18T10:12:27.037Z,245
2017-10-18T10:13:27.380Z,240
2017-10-18T10:14:27.028Z,240
2017-10-18T10:15:27.358Z,240
2017-10-18T10:16:27.029Z,240
2017-10-18T10:17:27.376Z,240
2017-10-18T10:18:27.362Z,240
2017-10-18T10:19:27.018Z,240
2017-10-18T10:20:27.361Z,245
2017-10-18T10:21:27.338Z,240
2017-10-18T10:22:27.332Z,240
2017-10-18T10:23:26.672Z,245
2017-10-18T10:24:26.998Z,240
2017-10-18T10:25:27.331Z,235
2017-10-18T10:26:27.318Z,235
2017-10-18T10:27:27.321Z,230
2017-10-18T10:28:27.309Z,225
2017-10-18T10:29:27.309Z,225
2017-10-18T10:30:27.308Z,230
2017-10-18T10:31:26.969Z,230
2017-10-18T10:32:27.302Z,225
2017-10-18T10:33:26.961Z,225
2017-10-18T10:34:26.964Z,220
2017-10-18T10:35:26.968Z,225
2017-10-18T10:36:26.954Z,225
2017-10-18T10:37:27.279Z,220
2017-10-18T10:38:26.280Z,215
2017-10-18T10:39:26.625Z,210
2017-10-18T10:40:27.283Z,210
2017-10-18T10:41:27.260Z,210
2017-10-18T10:42:27.264Z,215
2017-10-18T10:43:26.928Z,215
2017-10-18T10:44:26.923Z,215
2017-10-18T10:45:26.972Z,215
2017-10-18T10:46:27.251Z,210
2017-10-18T10:47:27.238Z,210
2017-10-18T10:48:26.574Z,205
2017-10-18T10:49:26.907Z,205
2017-10-18T10:50:26.903Z,200
2017-10-18T10:51:27.238Z,200
2017-10-18T10:52:27.236Z,195
2017-10-18T10:53:26.562Z,195
2017-10-18T10:54:27.227Z,195
2017-10-18T10:55:26.895Z,195
2017-10-18T10:56:27.214Z,195
2017-10-18T10:57:27.212Z,200
2017-10-18T10:58:26.875Z,200
2017-10-18T10:59:27.211Z,205
2017-10-18T11:00:27.201Z,205
2017-10-18T11:01:27.192Z,205
2017-10-18T11:02:27.069Z,210
2017-10-18T11:03:27.191Z,210
2017-10-18T11:04:26.858Z,210
2017-10-18T11:05:26.847Z,210
2017-10-18T11:06:26.843Z,210
2017-10-18T11:07:27.176Z,205
2017-10-18T11:08:27.169Z,205
2017-10-18T11:09:26.834Z,200
2017-10-18T11:10:27.196Z,200
2017-10-18T11:11:26.493Z,200
2017-10-18T11:12:26.823Z,200
2017-10-18T11:13:27.161Z,205
2017-10-18T11:14:26.480Z,205
2017-10-18T11:15:27.143Z,210
2017-10-18T11:16:27.153Z,210
2017-10-18T11:17:26.806Z,210
2017-10-18T11:18:26.469Z,210
2017-10-18T11:19:27.131Z,210
2017-10-18T11:20:27.136Z,210
2017-10-18T11:21:27.128Z,210
2017-10-18T11:22:27.122Z,215
2017-10-18T11:23:26.780Z,215
2017-10-18T11:24:26.491Z,215
2017-10-18T11:25:26.787Z,215
2017-10-18T11:26:26.772Z,215
2017-10-18T11:27:27.105Z,210
2017-10-18T11:28:26.763Z,210
2017-10-18T11:29:26.764Z,205
2017-10-18T11:30:26.764Z,205
2017-10-18T11:31:27.089Z,205
2017-10-18T11:32:26.756Z,200
2017-10-18T11:33:27.080Z,200
2017-10-18T11:34:26.748Z,195
2017-10-18T11:35:26.409Z,200
2017-10-18T11:36:27.070Z,200
2017-10-18T11:37:26.404Z,200
2017-10-18T11:38:26.736Z,205
2017-10-18T11:39:26.741Z,195
2017-10-18T11:40:27.069Z,195
2017-10-18T11:41:26.724Z,200
2017-10-18T11:42:27.584Z,200
2017-10-18T11:43:26.914Z,205
2017-10-18T11:44:27.246Z,205
2017-10-18T11:45:27.039Z,205
2017-10-18T11:46:27.337Z,205
2017-10-18T11:47:26.697Z,210
2017-10-18T11:48:26.699Z,210
2017-10-18T11:49:27.028Z,205
2017-10-18T11:50:27.030Z,210
2017-10-18T11:51:27.027Z,210
2017-10-18T11:52:26.689Z,210
2017-10-18T11:53:27.033Z,210
2017-10-18T11:54:26.669Z,215
2017-10-18T11:55:27.012Z,220
2017-10-18T11:56:28.620Z,225
2017-10-18T11:57:27.052Z,215
2017-10-18T11:58:27.043Z,215
2017-10-18T11:59:27.214Z,215
2017-10-18T12:00:27.011Z,215
2017-10-18T12:01:26.651Z,215
2017-10-18T12:02:26.651Z,215
2017-10-18T12:03:26.995Z,215
2017-10-18T12:04:26.984Z,215
2017-10-18T12:05:26.642Z,215
2017-10-18T12:06:26.643Z,215
2017-10-18T12:07:26.982Z,215
2017-10-18T12:08:26.960Z,210
2017-10-18T12:09:26.957Z,210
2017-10-18T12:10:26.966Z,215
2017-10-18T12:11:26.630Z,215
2017-10-18T12:12:26.951Z,210
2017-10-18T12:13:26.950Z,210
2017-10-18T12:14:26.947Z,210
2017-10-18T12:15:26.977Z,210
2017-10-18T12:16:26.939Z,210
2017-10-18T12:17:26.615Z,210
2017-10-18T12:18:26.873Z,210
2017-10-18T12:19:27.867Z,210
2017-10-18T12:20:26.597Z,205
2017-10-18T12:21:26.940Z,205
2017-10-18T12:22:26.917Z,205
2017-10-18T12:23:26.584Z,205
2017-10-18T12:24:26.578Z,205
2017-10-18T12:25:26.242Z,210
2017-10-18T12:26:26.576Z,215
2017-10-18T12:27:26.906Z,215
2017-10-18T12:28:27.106Z,210
2017-10-18T12:29:26.898Z,210
2017-10-18T12:30:26.898Z,210
2017-10-18T12:31:26.225Z,210
2017-10-18T12:32:26.886Z,210
2017-10-18T12:33:26.881Z,205
2017-10-18T12:34:26.875Z,205
2017-10-18T12:35:26.885Z,205
2017-10-18T12:36:26.874Z,200
2017-10-18T12:37:26.541Z,200
2017-10-18T12:38:27.682Z,200
2017-10-18T12:39:26.873Z,200
2017-10-18T12:40:26.531Z,200
2017-10-18T12:41:26.865Z,200
2017-10-18T12:42:26.890Z,200
2017-10-18T12:43:26.524Z,195
2017-10-18T12:44:26.846Z,195
2017-10-18T12:45:26.869Z,195
2017-10-18T12:46:26.846Z,195
2017-10-18T12:47:26.839Z,195
2017-10-18T12:48:26.503Z,195
2017-10-18T12:49:27.141Z,200
2017-10-18T12:50:26.833Z,195
2017-10-18T12:51:26.168Z,200
2017-10-18T12:52:26.719Z,200
2017-10-18T12:53:27.268Z,205
2017-10-18T12:54:27.069Z,210
2017-10-18T12:55:26.819Z,210
2017-10-18T12:56:26.849Z,210
2017-10-18T12:57:26.480Z,210
2017-10-18T12:58:26.486Z,210
2017-10-18T12:59:26.477Z,215
2017-10-18T13:00:26.138Z,215
2017-10-18T13:01:26.800Z,220
2017-10-18T13:02:26.129Z,220
2017-10-18T13:03:26.468Z,220
2017-10-18T13:04:26.465Z,225
2017-10-18T13:05:26.794Z,220
2017-10-18T13:06:26.792Z,220
2017-10-18T13:07:26.449Z,220
2017-10-18T13:08:26.780Z,220
2017-10-18T13:09:26.116Z,220
2017-10-18T13:10:26.779Z,220
2017-10-18T13:11:26.771Z,220
2017-10-18T13:12:26.442Z,225
2017-10-18T13:13:26.765Z,220
2017-10-18T13:14:26.764Z,220
2017-10-18T13:15:26.099Z,220
2017-10-18T13:16:26.763Z,225
2017-10-18T13:17:26.420Z,225
2017-10-18T13:18:26.633Z,225
2017-10-18T13:19:26.764Z,225
2017-10-18T13:20:26.714Z,225
2017-10-18T13:21:26.416Z,225
2017-10-18T13:22:26.612Z,225
2017-10-18T13:23:26.748Z,225
2017-10-18T13:24:26.736Z,225
2017-10-18T13:25:26.395Z,225
2017-10-18T13:26:26.743Z,225
2017-10-18T13:27:26.724Z,225
2017-10-18T13:28:26.392Z,225
2017-10-18T13:29:26.733Z,225
2017-10-18T13:30:26.386Z,225
2017-10-18T13:31:26.375Z,220
2017-10-18T13:32:26.705Z,220
2017-10-18T13:33:26.049Z,220
2017-10-18T13:34:26.387Z,220
2017-10-18T13:35:26.034Z,220
2017-10-18T13:36:26.038Z,215
2017-10-18T13:37:26.048Z,215
2017-10-18T13:38:26.689Z,215
2017-10-18T13:39:26.024Z,215
2017-10-18T13:40:26.723Z,210
2017-10-18T13:41:26.019Z,210
2017-10-18T13:42:26.685Z,210
2017-10-18T13:43:26.358Z,205
2017-10-18T13:44:26.345Z,205
2017-10-18T13:45:26.343Z,200
2017-10-18T13:46:26.345Z,195
2017-10-18T13:47:26.340Z,195
2017-10-18T13:48:26.663Z,195
2017-10-18T13:49:26.333Z,190
2017-10-18T13:50:26.662Z,190
2017-10-18T13:51:26.670Z,190
2017-10-18T13:52:25.990Z,190
2017-10-18T13:53:26.661Z,190
2017-10-18T13:54:26.655Z,195
2017-10-18T13:55:26.648Z,190
2017-10-18T13:56:26.313Z,190
2017-10-18T13:57:26.310Z,190
2017-10-18T13:58:26.311Z,190
2017-10-18T13:59:26.639Z,190
2017-10-18T14:00:26.304Z,190
2017-10-18T14:01:26.265Z,190
2017-10-18T14:02:26.298Z,190
2017-10-18T14:03:26.293Z,190
2017-10-18T14:04:26.629Z,190
2017-10-18T14:05:26.286Z,190
2017-10-18T14:06:26.619Z,185
2017-10-18T14:07:26.287Z,185
2017-10-18T14:08:25.944Z,185
2017-10-18T14:09:26.616Z,180
2017-10-18T14:10:26.273Z,180
2017-10-18T14:11:26.622Z,180